Aguanga, CA

8:26 AM PDT on September 21, 2014 (GMT -0700)
McClellan-Palomar | Change Station
CLOSE
Current Station
Airport
Location: Carlsbad,
Elevation: 328 ft
Nearby Weather Stations

Elev 328 ft 33.13 °N, 117.28 °W | Updated 33 minutes ago

Mostly Cloudy
Mostly Cloudy
70 °F
Feels Like 70 °F
N
0
Wind Variable Wind from North

Today
High -- | Low -- °F
--% Chance of Precip.
Yesterday
High -- | Low -- °F
Precip. -- in
6:34 AM 6:45 PM
Waning Crescent, 6% visible
Pressure 29.96 in
Visibility 10.0 miles
Clouds Overcast 2200 ft
Dew Point 59 °F
Humidity 68%
Rainfall 0.00 in
Snow Depth 4 in , 1 in , 0 in
UV 0 out of 12
Pollen 5.60 out of 12
Ozone Good
Flu Activity Not available.
METAR KCRQ 211453Z AUTO 00000KT 10SM OVC022 21/15 A2997 RMK AO2 SLP146 T02110150 53012

More Conditions Fewer Conditions

Pressure 29.96 in
Visibility 10.0 miles
Clouds Overcast 2200 ft
Dew Point 59 °F
Humidity 68%
Rainfall 0.00 in
Snow Depth 4 in , 1 in , 0 in
UV 0 out of 12
Pollen 5.60 out of 12
Ozone Good
Flu Activity Not available.
METAR KCRQ 211453Z AUTO 00000KT 10SM OVC022 21/15 A2997 RMK AO2 SLP146 T02110150 53012

More Conditions Fewer Conditions

10-Day Weather Forecast

Almanac

Astronomy

Sep. 21, 2014 Rise Set
Actual Time 6:34 AM PDT 6:45 PM PDT
Civil Twilight 6:09 AM PDT 7:09 PM PDT
Nautical Twilight 5:40 AM PDT 7:38 PM PDT
Astronomical Twilight 5:11 AM PDT 8:08 PM PDT
Moon 4:18 AM PDT 5:19 PM PDT
Length of Visible Light 13h 00m
Length of Day
12h 10m
Tomorrow will be 2m 4s shorter.
Waning Crescent, 6% of the Moon is Illuminated
Today
Waning Crescent
Sep 24
New
Oct 1
First Quarter
Oct 8
Full
Oct 15
Last Quarter

Today's Extremes

State Highs State Lows

Community

WunderPhotos

Upload Photos

1,755,166 photos uploaded!

Nearby

Air Quality

  Air Quality AQ Index Pollutant
Yesterday Good
OZONE
Yesterday Good
PM10
Current Good
OZONE
Sunday Moderate
OZONE
Sunday Good
PM10
Sunday Good
CO
Sunday Good
NO2

Snow Depth

Station Depth Elevation
CSS Lab 4 in 6900 ft
Leavitt Lake 1 in 9400 ft
Forestdale Creek 0 in 8029 ft
Spratt Creek 1 in 6200 ft
Ebbetts Pass 0 in 8700 ft

Earthquake Activity

City Distance Mag. Time & Date
Borrego Springs, California 28 miles 2.6 7:34 AM PDT
2014-09-21
Aguanga, California 3 miles 2.5 1:38 AM PDT
2014-09-19
Minimum magnitude displayed is 2.5.

Coastal Water Temperatures

Place Temperature
No Stations Reporting

Nearby Weather Stations